Afton, Oklahoma
Current Conditions -  °F | °C
As of 9:35 AM on Saturday 20 Dec 2014 (Local Time) from KGMJ Reporting Station
Haze Haze  
Wind Chill: 39°   Ceiling: 3100
Heat Index: 39°   Visibility: 4mi
Dew Point: 39°   Wind: 0mph
Humidity: 100%   Direction: NA
Pressure: 30.26"   Gusts: NA
Location:  36.69°N, 94.96°W
Report Text: KGMJ 201535Z AUTO 00000KT 4SM BR OVC031 04/04 A3026 RMK AO2
Loading
Personal Weather Stations






























Interactive Weather Map New forecast layout! Learn more

10-Day Weather Forecast

Advertisements
Track Severe Weather on mobile